createdAt,value
2019-02-05T00:01:55.376Z,3.77
2019-02-05T00:04:26.757Z,3.80
2019-02-05T00:06:58.339Z,4.10
2019-02-05T00:09:30.044Z,3.90
2019-02-05T00:12:01.333Z,4.33
2019-02-05T00:14:32.936Z,4.13
2019-02-05T00:17:04.929Z,4.37
2019-02-05T00:19:36.633Z,4.63
2019-02-05T00:22:08.342Z,3.63
2019-02-05T00:24:40.083Z,4.40
2019-02-05T00:27:11.442Z,4.57
2019-02-05T00:29:42.833Z,4.30
2019-02-05T00:32:14.416Z,4.27
2019-02-05T00:34:46.011Z,4.50
2019-02-05T00:37:17.295Z,4.20
2019-02-05T00:39:48.642Z,4.30
2019-02-05T00:42:19.939Z,4.83
2019-02-05T00:44:51.255Z,4.40
2019-02-05T00:47:22.679Z,4.67
2019-02-05T00:49:54.549Z,4.50
2019-02-05T00:52:27.328Z,4.03
2019-02-05T00:54:58.687Z,4.83
2019-02-05T00:57:29.999Z,4.47
2019-02-05T01:00:01.630Z,4.30
2019-02-05T01:02:32.980Z,4.80
2019-02-05T01:05:04.869Z,4.72
2019-02-05T01:07:36.145Z,4.63
2019-02-05T01:10:08.572Z,4.90
2019-02-05T01:12:40.302Z,4.90
2019-02-05T01:15:14.821Z,4.17
2019-02-05T01:17:46.654Z,5.22
2019-02-05T01:20:19.122Z,4.33
2019-02-05T01:22:51.072Z,4.63
2019-02-05T01:25:24.585Z,4.77
2019-02-05T01:27:55.927Z,4.90
2019-02-05T01:30:28.654Z,4.57
2019-02-05T01:33:00.267Z,5.50
2019-02-05T01:35:32.554Z,4.87
2019-02-05T01:38:03.834Z,5.27
2019-02-05T01:40:35.518Z,5.20
2019-02-05T01:43:07.060Z,4.73
2019-02-05T01:45:38.347Z,4.57
2019-02-05T01:48:09.872Z,4.72
2019-02-05T01:50:41.501Z,4.77
2019-02-05T01:53:12.943Z,5.33
2019-02-05T01:55:44.510Z,4.73
2019-02-05T01:58:16.148Z,4.70
2019-02-05T02:00:47.569Z,4.50
2019-02-05T02:03:18.920Z,5.37
2019-02-05T02:05:50.552Z,4.43
2019-02-05T02:08:21.864Z,4.90
2019-02-05T02:10:53.212Z,5.20
2019-02-05T02:13:24.835Z,5.10
2019-02-05T02:15:56.141Z,5.50
2019-02-05T02:18:27.773Z,4.40
2019-02-05T02:20:59.130Z,4.87
2019-02-05T02:23:30.511Z,4.33
2019-02-05T02:26:02.549Z,4.33
2019-02-05T02:32:18.225Z,4.85
2019-02-05T02:34:49.495Z,4.90
2019-02-05T02:37:21.137Z,4.27
2019-02-05T02:39:52.646Z,4.97
2019-02-05T02:42:24.596Z,4.70
2019-02-05T02:44:57.311Z,4.95
2019-02-05T02:47:29.120Z,4.90
2019-02-05T02:50:00.768Z,4.83
2019-02-05T02:52:32.116Z,5.40
2019-02-05T02:55:03.424Z,4.58
2019-02-05T02:57:34.694Z,4.70
2019-02-05T03:00:08.822Z,4.77
2019-02-05T03:02:40.932Z,5.23
2019-02-05T03:05:14.910Z,5.00
2019-02-05T03:07:46.478Z,5.60
2019-02-05T03:10:30.100Z,5.03
2019-02-05T03:13:01.646Z,5.50
2019-02-05T03:15:33.257Z,5.28
2019-02-05T03:18:04.599Z,4.93
2019-02-05T03:20:36.450Z,5.87
2019-02-05T03:23:08.067Z,5.50
2019-02-05T03:25:39.709Z,5.53
2019-02-05T03:28:11.031Z,5.50
2019-02-05T03:30:42.633Z,5.70
2019-02-05T03:33:14.232Z,5.87
2019-02-05T03:35:45.585Z,5.70
2019-02-05T03:38:17.152Z,5.60
2019-02-05T03:41:08.503Z,5.63
2019-02-05T03:43:41.153Z,6.03
2019-02-05T03:46:14.466Z,5.47
2019-02-05T03:48:48.352Z,5.60
2019-02-05T03:52:01.416Z,6.03
2019-02-05T03:55:22.537Z,6.50
2019-02-05T03:58:28.543Z,6.40
2019-02-05T04:02:04.361Z,5.75
2019-02-05T04:05:33.352Z,6.40
2019-02-05T04:09:15.294Z,6.27
2019-02-05T04:12:52.676Z,6.03
2019-02-05T04:16:03.073Z,6.00
2019-02-05T04:18:52.255Z,6.53
2019-02-05T04:22:06.219Z,6.63
2019-02-05T04:25:24.759Z,6.40
2019-02-05T04:28:50.625Z,6.80
2019-02-05T04:31:57.631Z,6.67
2019-02-05T04:35:33.476Z,6.27
2019-02-05T04:39:44.067Z,6.70
2019-02-05T04:43:20.561Z,6.23
2019-02-05T04:46:35.810Z,6.40
2019-02-05T04:50:11.506Z,5.90
2019-02-05T04:54:24.636Z,6.50
2019-02-05T04:57:29.666Z,6.00
2019-02-05T05:00:46.246Z,6.28
2019-02-05T05:04:28.487Z,6.00
2019-02-05T05:08:01.795Z,6.00
2019-02-05T05:10:33.126Z,6.37
2019-02-05T05:13:04.893Z,5.70
2019-02-05T05:15:37.344Z,6.20
2019-02-05T05:18:09.127Z,5.93
2019-02-05T05:20:41.223Z,6.17
2019-02-05T05:23:12.980Z,6.50
2019-02-05T05:25:44.719Z,5.90
2019-02-05T05:28:16.066Z,5.80
2019-02-05T05:30:47.444Z,6.47
2019-02-05T05:33:18.740Z,6.23
2019-02-05T05:35:50.337Z,6.20
2019-02-05T05:38:21.703Z,6.60
2019-02-05T05:40:53.140Z,6.17
2019-02-05T05:43:24.427Z,6.47
2019-02-05T05:45:56.021Z,6.33
2019-02-05T05:48:27.940Z,6.50
2019-02-05T05:50:59.191Z,6.57
2019-02-05T05:53:30.510Z,6.90
2019-02-05T05:56:01.832Z,7.10
2019-02-05T05:58:33.113Z,6.70
2019-02-05T06:01:04.307Z,6.93
2019-02-05T06:03:35.921Z,6.50
2019-02-05T06:06:07.777Z,6.57
2019-02-05T06:08:39.138Z,6.83
2019-02-05T06:11:10.451Z,7.30
2019-02-05T06:13:42.030Z,7.37
2019-02-05T06:16:13.656Z,7.33
2019-02-05T06:18:45.767Z,7.43
2019-02-05T06:21:18.531Z,7.10
2019-02-05T06:23:49.923Z,7.43
2019-02-05T06:26:22.064Z,6.90
2019-02-05T06:28:53.289Z,7.15
2019-02-05T06:31:25.047Z,6.97
2019-02-05T06:33:56.426Z,7.20
2019-02-05T06:36:49.727Z,7.62
2019-02-05T06:39:21.185Z,7.47
2019-02-05T06:41:53.289Z,7.40
2019-02-05T06:44:25.377Z,8.03
2019-02-05T06:46:56.807Z,8.50
2019-02-05T06:49:28.825Z,8.45
2019-02-05T06:52:00.418Z,8.93
2019-02-05T06:54:32.070Z,8.93
2019-02-05T06:57:03.356Z,8.50
2019-02-05T06:59:34.983Z,8.83
2019-02-05T07:02:08.709Z,9.43
2019-02-05T07:04:40.327Z,9.13
2019-02-05T07:07:11.603Z,8.78
2019-02-05T07:09:42.924Z,9.07
2019-02-05T07:12:14.519Z,10.17
2019-02-05T07:14:46.134Z,10.30
2019-02-05T07:17:17.408Z,10.10
2019-02-05T07:19:49.042Z,9.80
2019-02-05T07:22:20.690Z,9.93
2019-02-05T07:24:52.800Z,10.82
2019-02-05T07:27:24.558Z,10.30
2019-02-05T07:29:56.409Z,11.07
2019-02-05T07:32:28.087Z,10.53
2019-02-05T07:34:59.341Z,10.63
2019-02-05T07:37:30.645Z,10.53
2019-02-05T07:40:02.002Z,11.08
2019-02-05T07:42:33.322Z,10.30
2019-02-05T07:45:05.222Z,11.17
2019-02-05T07:47:36.582Z,10.67
2019-02-05T07:50:15.412Z,11.70
2019-02-05T07:52:45.347Z,11.90
2019-02-05T07:55:16.643Z,12.27
2019-02-05T07:57:48.837Z,11.70
2019-02-05T08:00:23.596Z,11.47
2019-02-05T08:02:54.953Z,11.47
2019-02-05T08:05:30.285Z,11.90
2019-02-05T08:08:01.796Z,12.27
2019-02-05T08:10:33.409Z,12.53
2019-02-05T08:13:05.018Z,13.17
2019-02-05T08:15:36.376Z,12.80
2019-02-05T08:18:08.582Z,12.67
2019-02-05T08:20:39.882Z,12.17
2019-02-05T08:23:11.150Z,12.63
2019-02-05T08:25:43.115Z,12.58
2019-02-05T08:28:14.379Z,12.93
2019-02-05T08:30:48.519Z,12.10
2019-02-05T08:33:21.376Z,12.57
2019-02-05T08:35:52.679Z,12.80
2019-02-05T08:38:23.935Z,12.97
2019-02-05T08:40:55.242Z,12.33
2019-02-05T08:43:26.481Z,12.83
2019-02-05T08:45:58.383Z,13.65
2019-02-05T08:48:30.168Z,13.08
2019-02-05T08:51:01.429Z,13.33
2019-02-05T08:53:33.266Z,13.93
2019-02-05T08:56:05.385Z,13.00
2019-02-05T08:58:36.646Z,13.87
2019-02-05T09:01:08.490Z,14.00
2019-02-05T09:03:39.840Z,14.90
2019-02-05T09:06:11.475Z,15.00
2019-02-05T09:08:42.727Z,13.88
2019-02-05T09:11:14.588Z,14.83
2019-02-05T09:13:46.201Z,15.17
2019-02-05T09:16:17.725Z,14.00
2019-02-05T09:18:49.590Z,14.95
2019-02-05T09:21:21.406Z,15.73
2019-02-05T09:23:53.037Z,14.60
2019-02-05T09:26:24.746Z,15.93
2019-02-05T09:28:56.042Z,15.10
2019-02-05T09:31:27.277Z,14.83
2019-02-05T09:33:58.571Z,15.17
2019-02-05T09:36:30.147Z,14.23
2019-02-05T09:39:01.566Z,15.67
2019-02-05T09:41:32.951Z,15.97
2019-02-05T09:44:04.949Z,15.03
2019-02-05T09:46:36.601Z,14.80
2019-02-05T09:49:09.105Z,15.97
2019-02-05T09:51:40.360Z,15.37
2019-02-05T09:54:11.711Z,14.55
2019-02-05T09:56:43.009Z,15.40
2019-02-05T09:59:14.278Z,14.28
2019-02-05T10:01:45.860Z,15.33
2019-02-05T10:04:17.134Z,15.67
2019-02-05T10:06:50.080Z,15.13
2019-02-05T10:09:21.379Z,15.23
2019-02-05T10:11:52.674Z,15.77
2019-02-05T10:14:24.009Z,15.77
2019-02-05T10:16:55.799Z,14.47
2019-02-05T10:19:27.095Z,15.47
2019-02-05T10:21:58.349Z,15.27
2019-02-05T10:24:29.640Z,14.27
2019-02-05T10:27:00.931Z,15.27
2019-02-05T10:29:32.554Z,14.57
2019-02-05T10:32:03.900Z,14.87
2019-02-05T10:34:35.210Z,14.90
2019-02-05T10:37:07.172Z,14.97
2019-02-05T10:39:38.936Z,14.87
2019-02-05T10:42:11.985Z,14.73
2019-02-05T10:44:43.694Z,14.77
2019-02-05T10:47:15.296Z,15.43
2019-02-05T10:49:47.250Z,14.45
2019-02-05T10:52:18.541Z,15.35
2019-02-05T10:54:50.850Z,15.27
2019-02-05T10:57:22.941Z,14.45
2019-02-05T10:59:54.579Z,15.18
2019-02-05T11:02:26.439Z,14.77
2019-02-05T11:04:58.239Z,15.00
2019-02-05T11:07:30.491Z,15.00
2019-02-05T11:10:02.619Z,14.80
2019-02-05T11:12:39.532Z,14.10
2019-02-05T11:15:14.222Z,14.20
2019-02-05T11:17:45.563Z,13.57
2019-02-05T11:20:28.574Z,13.03
2019-02-05T11:23:04.135Z,12.70
2019-02-05T11:25:39.908Z,13.58
2019-02-05T11:28:17.519Z,13.50
2019-02-05T11:30:49.177Z,14.33
2019-02-05T11:33:20.656Z,14.27
2019-02-05T11:35:52.974Z,13.85
2019-02-05T11:38:34.514Z,14.53
2019-02-05T11:41:06.144Z,14.60
2019-02-05T11:43:38.138Z,14.63
2019-02-05T11:46:09.967Z,14.30
2019-02-05T11:48:42.247Z,13.40
2019-02-05T11:51:14.248Z,13.00
2019-02-05T11:53:52.466Z,14.60
2019-02-05T11:56:24.854Z,14.17
2019-02-05T11:58:56.164Z,14.53
2019-02-05T12:01:38.391Z,15.00
2019-02-05T12:04:05.108Z,14.15
2019-02-05T12:06:36.729Z,14.53
2019-02-05T12:09:20.801Z,15.13
2019-02-05T12:11:52.036Z,14.27
2019-02-05T12:14:23.373Z,13.93
2019-02-05T12:16:54.608Z,14.10
2019-02-05T12:19:25.874Z,14.07
2019-02-05T12:21:57.286Z,14.30
2019-02-05T12:24:29.171Z,14.40
2019-02-05T12:27:00.903Z,13.40
2019-02-05T12:29:32.578Z,13.60
2019-02-05T12:32:03.914Z,13.30
2019-02-05T12:34:35.671Z,13.73
2019-02-05T12:37:07.474Z,13.70
2019-02-05T12:39:39.113Z,13.10
2019-02-05T12:42:10.352Z,13.47
2019-02-05T12:44:41.756Z,13.83
2019-02-05T12:47:13.134Z,14.17
2019-02-05T12:49:44.460Z,13.50
2019-02-05T12:52:16.760Z,13.47
2019-02-05T12:54:48.013Z,14.10
2019-02-05T12:57:19.268Z,13.60
2019-02-05T12:59:50.873Z,14.13
2019-02-05T13:02:22.958Z,13.80
2019-02-05T13:04:54.237Z,14.60
2019-02-05T13:07:25.607Z,13.83
2019-02-05T13:09:57.209Z,13.27
2019-02-05T13:12:28.471Z,13.30
2019-02-05T13:15:00.237Z,13.32
2019-02-05T13:17:31.451Z,12.60
2019-02-05T13:20:02.998Z,12.17
2019-02-05T13:22:34.312Z,12.33
2019-02-05T13:25:10.191Z,12.95
2019-02-05T13:27:41.816Z,14.45
2019-02-05T13:30:16.343Z,13.35
2019-02-05T13:32:47.620Z,13.63
2019-02-05T13:35:19.496Z,13.17
2019-02-05T13:37:51.760Z,12.57
2019-02-05T13:40:25.397Z,12.97
2019-02-05T13:42:58.678Z,13.10
2019-02-05T13:45:32.776Z,12.60
2019-02-05T13:48:05.187Z,13.10
2019-02-05T13:50:36.437Z,12.63
2019-02-05T13:53:10.526Z,12.50
2019-02-05T13:55:45.382Z,12.17
2019-02-05T13:58:17.183Z,11.73
2019-02-05T14:00:54.806Z,12.18
2019-02-05T14:03:26.363Z,12.33
2019-02-05T14:05:57.668Z,12.20
2019-02-05T14:08:28.999Z,12.80
2019-02-05T14:11:00.639Z,12.87
2019-02-05T14:13:38.438Z,13.10
2019-02-05T14:16:16.313Z,12.33
2019-02-05T14:18:54.976Z,12.70
2019-02-05T14:21:21.043Z,12.50
2019-02-05T14:23:53.105Z,13.30
2019-02-05T14:26:24.848Z,11.17
2019-02-05T14:28:57.205Z,12.40
2019-02-05T14:31:31.339Z,12.88
2019-02-05T14:34:01.337Z,13.03
2019-02-05T14:36:33.576Z,11.63
2019-02-05T14:39:09.068Z,12.37
2019-02-05T14:41:41.935Z,14.73
2019-02-05T14:44:13.200Z,12.33
2019-02-05T14:46:44.857Z,12.47
2019-02-05T14:49:16.449Z,12.20
2019-02-05T14:51:47.761Z,13.23
2019-02-05T14:54:19.062Z,12.90
2019-02-05T14:56:50.377Z,12.50
2019-02-05T14:59:22.119Z,12.23
2019-02-05T15:01:53.707Z,11.83
2019-02-05T15:04:24.962Z,12.17
2019-02-05T15:06:56.207Z,12.87
2019-02-05T15:09:27.850Z,11.60
2019-02-05T15:11:59.755Z,12.43
2019-02-05T15:14:31.112Z,11.77
2019-02-05T15:17:02.399Z,11.00
2019-02-05T15:19:34.047Z,11.67
2019-02-05T15:22:05.528Z,11.73
2019-02-05T15:24:40.656Z,11.53
2019-02-05T15:27:10.117Z,10.97
2019-02-05T15:29:41.566Z,11.47
2019-02-05T15:32:15.253Z,11.25
2019-02-05T15:34:46.565Z,12.23
2019-02-05T15:37:18.350Z,11.20
2019-02-05T15:39:49.674Z,10.87
2019-02-05T15:42:21.054Z,10.50
2019-02-05T15:44:52.251Z,13.48
2019-02-05T15:47:23.558Z,11.40
2019-02-05T15:50:05.657Z,11.75
2019-02-05T15:52:28.058Z,11.90
2019-02-05T15:54:59.319Z,12.43
2019-02-05T15:57:30.930Z,11.27
2019-02-05T16:00:02.360Z,11.57
2019-02-05T16:02:33.684Z,11.18
2019-02-05T16:05:06.096Z,10.77
2019-02-05T16:07:37.374Z,10.57
2019-02-05T16:10:11.482Z,11.17
2019-02-05T16:12:43.044Z,11.20
2019-02-05T16:15:14.512Z,10.90
2019-02-05T16:17:45.848Z,11.60
2019-02-05T16:20:17.597Z,12.53
2019-02-05T16:22:51.170Z,11.53
2019-02-05T16:25:23.045Z,12.10
2019-02-05T16:27:54.958Z,11.93
2019-02-05T16:30:26.315Z,11.90
2019-02-05T16:32:57.632Z,12.50
2019-02-05T16:35:29.255Z,12.07
2019-02-05T16:38:00.644Z,12.93
2019-02-05T16:40:32.226Z,13.40
2019-02-05T16:43:03.511Z,13.30
2019-02-05T16:45:34.858Z,13.17
2019-02-05T16:48:06.980Z,12.95
2019-02-05T16:50:41.847Z,13.70
2019-02-05T16:53:13.475Z,13.50
2019-02-05T16:55:45.492Z,14.00
2019-02-05T16:58:16.795Z,15.50
2019-02-05T17:00:48.074Z,15.08
2019-02-05T17:03:19.393Z,13.62
2019-02-05T17:05:50.898Z,14.33
2019-02-05T17:08:22.623Z,15.70
2019-02-05T17:10:55.318Z,16.30
2019-02-05T17:13:26.596Z,17.27
2019-02-05T17:15:58.303Z,16.63
2019-02-05T17:18:29.737Z,18.07
2019-02-05T17:21:01.239Z,17.70
2019-02-05T17:23:32.498Z,18.47
2019-02-05T17:26:03.767Z,19.57
2019-02-05T17:28:35.024Z,20.17
2019-02-05T17:31:06.315Z,20.67
2019-02-05T17:33:39.040Z,19.77
2019-02-05T17:36:10.321Z,19.27
2019-02-05T17:38:41.908Z,20.00
2019-02-05T17:41:13.881Z,21.57
2019-02-05T17:43:45.141Z,21.93
2019-02-05T17:46:16.806Z,20.87
2019-02-05T17:48:48.792Z,21.80
2019-02-05T17:51:23.288Z,22.82
2019-02-05T17:53:54.657Z,21.47
2019-02-05T17:56:26.327Z,22.37
2019-02-05T17:58:58.215Z,24.10
2019-02-05T18:01:29.879Z,24.27
2019-02-05T18:04:01.468Z,22.73
2019-02-05T18:06:32.839Z,22.87
2019-02-05T18:09:06.072Z,23.73
2019-02-05T18:11:37.403Z,22.17
2019-02-05T18:14:08.780Z,24.63
2019-02-05T18:16:40.353Z,23.57
2019-02-05T18:19:11.813Z,25.87
2019-02-05T18:21:43.363Z,29.12
2019-02-05T18:24:15.019Z,30.00
2019-02-05T18:26:46.320Z,30.47
2019-02-05T18:29:17.556Z,24.13
2019-02-05T18:31:49.053Z,24.30
2019-02-05T18:34:20.390Z,23.13
2019-02-05T18:36:52.033Z,24.50
2019-02-05T18:39:23.365Z,29.57
2019-02-05T18:41:54.734Z,27.03
2019-02-05T18:44:26.713Z,25.63
2019-02-05T18:46:58.316Z,26.30
2019-02-05T18:49:29.765Z,26.07
2019-02-05T18:52:01.139Z,24.40
2019-02-05T18:54:32.439Z,24.43
2019-02-05T18:57:04.465Z,21.97
2019-02-05T18:59:35.777Z,26.68
2019-02-05T19:02:07.032Z,23.33
2019-02-05T19:04:38.347Z,24.37
2019-02-05T19:07:09.720Z,24.77
2019-02-05T19:09:40.977Z,31.52
2019-02-05T19:12:12.306Z,28.37
2019-02-05T19:14:43.600Z,26.33
2019-02-05T19:17:15.161Z,25.37
2019-02-05T19:19:47.173Z,23.97
2019-02-05T19:22:18.606Z,24.63
2019-02-05T19:24:55.204Z,24.67
2019-02-05T19:27:26.595Z,23.47
2019-02-05T19:29:58.833Z,23.93
2019-02-05T19:32:30.458Z,24.73
2019-02-05T19:35:01.981Z,21.60
2019-02-05T19:37:33.290Z,25.57
2019-02-05T19:40:06.760Z,28.67
2019-02-05T19:42:38.069Z,25.70
2019-02-05T19:45:31.672Z,23.53
2019-02-05T19:48:05.021Z,23.83
2019-02-05T19:50:36.426Z,26.20
2019-02-05T19:53:08.069Z,26.70
2019-02-05T19:55:39.380Z,24.18
2019-02-05T19:58:10.754Z,21.95
2019-02-05T20:00:42.054Z,24.17
2019-02-05T20:03:13.831Z,37.83
2019-02-05T20:05:45.492Z,25.95
2019-02-05T20:08:17.437Z,22.07
2019-02-05T20:10:49.268Z,23.64
2019-02-05T20:13:20.987Z,22.90
2019-02-05T20:15:52.664Z,22.53
2019-02-05T20:18:24.227Z,26.33
2019-02-05T20:20:56.067Z,22.15
2019-02-05T20:23:27.328Z,20.40
2019-02-05T20:25:59.295Z,21.00
2019-02-05T20:28:30.854Z,21.30
2019-02-05T20:31:02.222Z,18.43
2019-02-05T20:33:33.887Z,19.60
2019-02-05T20:36:05.241Z,18.63
2019-02-05T20:38:37.067Z,18.17
2019-02-05T20:41:09.222Z,17.90
2019-02-05T20:43:42.643Z,18.90
2019-02-05T20:46:13.990Z,18.27
2019-02-05T20:48:45.786Z,19.33
2019-02-05T20:51:19.174Z,16.50
2019-02-05T20:53:50.755Z,17.90
2019-02-05T20:56:22.133Z,17.90
2019-02-05T20:58:53.767Z,16.90
2019-02-05T21:01:25.111Z,18.70
2019-02-05T21:04:01.178Z,17.77
2019-02-05T21:12:54.169Z,17.20
2019-02-05T21:15:26.504Z,17.87
2019-02-05T21:17:59.246Z,17.83
2019-02-05T21:20:33.694Z,20.00
2019-02-05T21:23:06.106Z,16.57
2019-02-05T21:25:37.387Z,17.23
2019-02-05T21:28:09.835Z,16.63
2019-02-05T21:37:40.109Z,17.37
2019-02-05T21:40:16.463Z,19.03
2019-02-05T21:42:48.158Z,17.73
2019-02-05T21:45:21.625Z,18.25
2019-02-05T21:47:54.474Z,17.40
2019-02-05T21:50:26.032Z,18.20
2019-02-05T21:52:57.403Z,18.50
2019-02-05T21:55:29.222Z,18.30
2019-02-05T21:58:00.488Z,19.60
2019-02-05T22:00:33.120Z,19.53
2019-02-05T22:03:05.236Z,18.23
2019-02-05T22:05:36.637Z,18.30
2019-02-05T22:08:08.960Z,16.62
2019-02-05T22:10:40.545Z,16.97
2019-02-05T22:13:11.867Z,16.07
2019-02-05T22:15:43.217Z,15.72
2019-02-05T22:18:14.505Z,16.20
2019-02-05T22:20:45.782Z,16.43
2019-02-05T22:23:17.830Z,16.77
2019-02-05T22:25:49.154Z,15.57
2019-02-05T22:28:20.718Z,16.87
2019-02-05T22:30:52.818Z,17.23
2019-02-05T22:33:24.318Z,17.17
2019-02-05T22:35:55.886Z,17.83
2019-02-05T22:38:27.213Z,17.63
2019-02-05T22:40:58.480Z,17.73
2019-02-05T22:43:29.783Z,17.37
2019-02-05T22:46:01.269Z,18.20
2019-02-05T22:48:32.999Z,18.07
2019-02-05T22:51:04.256Z,19.27
2019-02-05T22:53:36.469Z,19.20
2019-02-05T22:56:08.151Z,19.07
2019-02-05T22:58:39.795Z,20.37
2019-02-05T23:01:50.737Z,19.73
2019-02-05T23:05:14.617Z,19.30
2019-02-05T23:07:46.233Z,19.97
2019-02-05T23:11:03.139Z,21.13
2019-02-05T23:13:26.538Z,19.43
2019-02-05T23:15:58.199Z,18.50
2019-02-05T23:18:29.880Z,19.07
2019-02-05T23:21:01.195Z,20.83
2019-02-05T23:23:32.428Z,20.03
2019-02-05T23:26:04.039Z,19.37
2019-02-05T23:28:35.635Z,19.23
2019-02-05T23:31:07.272Z,19.10
2019-02-05T23:33:38.533Z,20.00
2019-02-05T23:36:09.884Z,18.10
2019-02-05T23:38:42.253Z,18.48
2019-02-05T23:41:14.205Z,19.07
2019-02-05T23:43:45.504Z,19.60
2019-02-05T23:46:16.752Z,19.05
2019-02-05T23:48:48.420Z,19.77
2019-02-05T23:51:19.689Z,19.70
2019-02-05T23:53:51.225Z,21.13
2019-02-05T23:56:25.850Z,20.55
2019-02-05T23:58:56.086Z,20.07
